sensor_id;sensor_type;location;lat;lon;timestamp;temperature;humidity
11989;DHT22;6054;50.966;7.094;2023-05-19T00:00:01;21.50;39.00
11989;DHT22;6054;50.966;7.094;2023-05-19T00:02:29;21.40;39.20
11989;DHT22;6054;50.966;7.094;2023-05-19T00:04:58;21.40;39.10
11989;DHT22;6054;50.966;7.094;2023-05-19T00:07:29;21.30;39.70
11989;DHT22;6054;50.966;7.094;2023-05-19T00:09:56;21.30;39.30
11989;DHT22;6054;50.966;7.094;2023-05-19T00:12:25;21.20;39.10
11989;DHT22;6054;50.966;7.094;2023-05-19T00:14:52;21.20;39.30
11989;DHT22;6054;50.966;7.094;2023-05-19T00:17:19;21.10;39.00
11989;DHT22;6054;50.966;7.094;2023-05-19T00:19:46;21.00;38.90
11989;DHT22;6054;50.966;7.094;2023-05-19T00:22:13;21.00;39.00
11989;DHT22;6054;50.966;7.094;2023-05-19T00:24:40;20.90;39.00
11989;DHT22;6054;50.966;7.094;2023-05-19T00:27:07;20.90;39.00
11989;DHT22;6054;50.966;7.094;2023-05-19T00:29:35;20.90;39.00
11989;DHT22;6054;50.966;7.094;2023-05-19T00:32:02;20.80;39.10
11989;DHT22;6054;50.966;7.094;2023-05-19T00:34:28;20.80;39.00
11989;DHT22;6054;50.966;7.094;2023-05-19T00:36:55;20.70;39.30
11989;DHT22;6054;50.966;7.094;2023-05-19T00:39:22;20.90;39.50
11989;DHT22;6054;50.966;7.094;2023-05-19T00:41:49;20.60;39.40
11989;DHT22;6054;50.966;7.094;2023-05-19T00:44:15;20.60;39.40
11989;DHT22;6054;50.966;7.094;2023-05-19T00:46:44;20.50;39.60
11989;DHT22;6054;50.966;7.094;2023-05-19T00:49:11;20.50;39.50
11989;DHT22;6054;50.966;7.094;2023-05-19T00:51:37;20.70;39.90
11989;DHT22;6054;50.966;7.094;2023-05-19T00:54:05;20.40;40.10
11989;DHT22;6054;50.966;7.094;2023-05-19T00:56:32;20.40;39.90
11989;DHT22;6054;50.966;7.094;2023-05-19T00:58:59;20.30;39.70
11989;DHT22;6054;50.966;7.094;2023-05-19T01:01:26;20.30;39.90
11989;DHT22;6054;50.966;7.094;2023-05-19T01:03:54;20.20;39.70
11989;DHT22;6054;50.966;7.094;2023-05-19T01:06:23;20.20;40.80
11989;DHT22;6054;50.966;7.094;2023-05-19T01:08:53;20.10;40.40
11989;DHT22;6054;50.966;7.094;2023-05-19T01:11:20;20.10;40.10
11989;DHT22;6054;50.966;7.094;2023-05-19T01:13:47;20.10;40.10
11989;DHT22;6054;50.966;7.094;2023-05-19T01:16:23;20.00;40.10
11989;DHT22;6054;50.966;7.094;2023-05-19T01:19:01;20.00;40.40
11989;DHT22;6054;50.966;7.094;2023-05-19T01:24:58;19.90;40.40
11989;DHT22;6054;50.966;7.094;2023-05-19T01:27:42;19.80;40.40
11989;DHT22;6054;50.966;7.094;2023-05-19T01:30:25;19.80;40.60
11989;DHT22;6054;50.966;7.094;2023-05-19T01:32:54;19.70;40.80
11989;DHT22;6054;50.966;7.094;2023-05-19T01:35:24;19.70;40.70
11989;DHT22;6054;50.966;7.094;2023-05-19T01:37:55;19.70;41.00
11989;DHT22;6054;50.966;7.094;2023-05-19T01:40:23;19.60;41.00
11989;DHT22;6054;50.966;7.094;2023-05-19T01:42:52;19.60;41.10
11989;DHT22;6054;50.966;7.094;2023-05-19T01:45:20;19.50;41.10
11989;DHT22;6054;50.966;7.094;2023-05-19T01:47:50;19.50;40.80
11989;DHT22;6054;50.966;7.094;2023-05-19T01:50:18;19.40;41.10
11989;DHT22;6054;50.966;7.094;2023-05-19T01:52:44;19.40;40.60
11989;DHT22;6054;50.966;7.094;2023-05-19T01:55:11;19.40;40.90
11989;DHT22;6054;50.966;7.094;2023-05-19T01:57:45;19.30;40.90
11989;DHT22;6054;50.966;7.094;2023-05-19T02:00:20;19.30;41.70
11989;DHT22;6054;50.966;7.094;2023-05-19T02:02:59;19.30;41.60
11989;DHT22;6054;50.966;7.094;2023-05-19T02:05:39;19.20;41.60
11989;DHT22;6054;50.966;7.094;2023-05-19T02:08:13;19.20;41.60
11989;DHT22;6054;50.966;7.094;2023-05-19T02:10:44;19.10;41.50
11989;DHT22;6054;50.966;7.094;2023-05-19T02:13:16;19.10;41.60
11989;DHT22;6054;50.966;7.094;2023-05-19T02:15:44;19.00;41.40
11989;DHT22;6054;50.966;7.094;2023-05-19T02:18:13;19.00;41.30
11989;DHT22;6054;50.966;7.094;2023-05-19T02:20:42;19.00;42.10
11989;DHT22;6054;50.966;7.094;2023-05-19T02:23:09;18.90;41.30
11989;DHT22;6054;50.966;7.094;2023-05-19T02:25:36;18.90;41.20
11989;DHT22;6054;50.966;7.094;2023-05-19T02:28:02;18.80;41.50
11989;DHT22;6054;50.966;7.094;2023-05-19T02:30:31;18.80;41.60
11989;DHT22;6054;50.966;7.094;2023-05-19T02:33:00;18.80;41.60
11989;DHT22;6054;50.966;7.094;2023-05-19T02:35:28;18.90;41.20
11989;DHT22;6054;50.966;7.094;2023-05-19T02:37:55;19.00;41.00
11989;DHT22;6054;50.966;7.094;2023-05-19T02:40:23;18.80;40.80
11989;DHT22;6054;50.966;7.094;2023-05-19T02:42:50;18.60;41.40
11989;DHT22;6054;50.966;7.094;2023-05-19T02:45:16;18.60;41.00
11989;DHT22;6054;50.966;7.094;2023-05-19T02:47:43;18.60;41.10
11989;DHT22;6054;50.966;7.094;2023-05-19T02:50:10;18.50;41.00
11989;DHT22;6054;50.966;7.094;2023-05-19T02:52:39;18.50;41.20
11989;DHT22;6054;50.966;7.094;2023-05-19T02:55:07;18.50;41.90
11989;DHT22;6054;50.966;7.094;2023-05-19T02:57:34;18.40;41.30
11989;DHT22;6054;50.966;7.094;2023-05-19T03:00:01;18.40;40.90
11989;DHT22;6054;50.966;7.094;2023-05-19T03:02:30;18.30;40.90
11989;DHT22;6054;50.966;7.094;2023-05-19T03:04:58;18.30;41.20
11989;DHT22;6054;50.966;7.094;2023-05-19T03:07:25;18.20;41.20
11989;DHT22;6054;50.966;7.094;2023-05-19T03:09:54;18.30;41.20
11989;DHT22;6054;50.966;7.094;2023-05-19T03:12:20;18.40;40.70
11989;DHT22;6054;50.966;7.094;2023-05-19T03:14:47;18.10;40.60
11989;DHT22;6054;50.966;7.094;2023-05-19T03:17:14;18.10;40.70
11989;DHT22;6054;50.966;7.094;2023-05-19T03:19:41;18.20;41.50
11989;DHT22;6054;50.966;7.094;2023-05-19T03:22:07;18.00;41.20
11989;DHT22;6054;50.966;7.094;2023-05-19T03:24:34;17.90;41.70
11989;DHT22;6054;50.966;7.094;2023-05-19T03:27:03;17.90;42.00
11989;DHT22;6054;50.966;7.094;2023-05-19T03:29:30;17.90;42.10
11989;DHT22;6054;50.966;7.094;2023-05-19T03:31:57;17.80;41.70
11989;DHT22;6054;50.966;7.094;2023-05-19T03:34:24;17.80;41.60
11989;DHT22;6054;50.966;7.094;2023-05-19T03:36:51;17.80;41.30
11989;DHT22;6054;50.966;7.094;2023-05-19T03:39:18;17.80;41.50
11989;DHT22;6054;50.966;7.094;2023-05-19T03:41:45;17.80;41.90
11989;DHT22;6054;50.966;7.094;2023-05-19T03:44:13;17.80;41.70
11989;DHT22;6054;50.966;7.094;2023-05-19T03:46:40;18.00;42.00
11989;DHT22;6054;50.966;7.094;2023-05-19T03:49:06;17.70;41.90
11989;DHT22;6054;50.966;7.094;2023-05-19T03:51:33;17.70;42.20
11989;DHT22;6054;50.966;7.094;2023-05-19T03:54:01;17.60;42.10
11989;DHT22;6054;50.966;7.094;2023-05-19T03:56:27;17.60;41.60
11989;DHT22;6054;50.966;7.094;2023-05-19T03:58:55;17.60;42.70
11989;DHT22;6054;50.966;7.094;2023-05-19T04:01:23;17.60;42.50
11989;DHT22;6054;50.966;7.094;2023-05-19T04:03:50;17.30;42.10
11989;DHT22;6054;50.966;7.094;2023-05-19T04:06:17;17.50;42.30
11989;DHT22;6054;50.966;7.094;2023-05-19T04:08:44;17.50;42.40
11989;DHT22;6054;50.966;7.094;2023-05-19T04:11:11;17.50;42.30
11989;DHT22;6054;50.966;7.094;2023-05-19T04:13:38;17.50;42.30
11989;DHT22;6054;50.966;7.094;2023-05-19T04:16:05;17.50;42.60
11989;DHT22;6054;50.966;7.094;2023-05-19T04:18:34;17.40;43.00
11989;DHT22;6054;50.966;7.094;2023-05-19T04:21:00;17.50;43.10
11989;DHT22;6054;50.966;7.094;2023-05-19T04:23:27;17.40;42.30
11989;DHT22;6054;50.966;7.094;2023-05-19T04:25:54;17.30;42.70
11989;DHT22;6054;50.966;7.094;2023-05-19T04:28:21;17.30;43.10
11989;DHT22;6054;50.966;7.094;2023-05-19T04:30:49;17.30;43.40
11989;DHT22;6054;50.966;7.094;2023-05-19T04:33:15;17.30;42.70
11989;DHT22;6054;50.966;7.094;2023-05-19T04:35:45;17.60;43.10
11989;DHT22;6054;50.966;7.094;2023-05-19T04:38:14;17.30;43.00
11989;DHT22;6054;50.966;7.094;2023-05-19T04:40:43;17.40;42.60
11989;DHT22;6054;50.966;7.094;2023-05-19T04:43:10;17.40;43.50
11989;DHT22;6054;50.966;7.094;2023-05-19T04:45:36;17.40;44.00
11989;DHT22;6054;50.966;7.094;2023-05-19T04:48:06;17.40;43.90
11989;DHT22;6054;50.966;7.094;2023-05-19T04:50:33;17.50;43.90
11989;DHT22;6054;50.966;7.094;2023-05-19T04:53:04;17.50;43.70
11989;DHT22;6054;50.966;7.094;2023-05-19T04:55:31;17.60;43.60
11989;DHT22;6054;50.966;7.094;2023-05-19T04:57:58;17.60;44.20
11989;DHT22;6054;50.966;7.094;2023-05-19T05:00:25;17.70;44.00
11989;DHT22;6054;50.966;7.094;2023-05-19T05:02:52;17.70;44.60
11989;DHT22;6054;50.966;7.094;2023-05-19T05:05:21;17.80;44.50
11989;DHT22;6054;50.966;7.094;2023-05-19T05:07:48;18.10;44.50
11989;DHT22;6054;50.966;7.094;2023-05-19T05:10:16;17.90;43.90
11989;DHT22;6054;50.966;7.094;2023-05-19T05:12:44;18.00;44.20
11989;DHT22;6054;50.966;7.094;2023-05-19T05:15:11;18.10;45.20
11989;DHT22;6054;50.966;7.094;2023-05-19T05:17:39;18.10;45.30
11989;DHT22;6054;50.966;7.094;2023-05-19T05:20:06;18.20;45.30
11989;DHT22;6054;50.966;7.094;2023-05-19T05:22:34;18.30;45.60
11989;DHT22;6054;50.966;7.094;2023-05-19T05:25:03;18.40;45.70
11989;DHT22;6054;50.966;7.094;2023-05-19T05:27:32;18.50;46.00
11989;DHT22;6054;50.966;7.094;2023-05-19T05:29:59;18.60;45.90
11989;DHT22;6054;50.966;7.094;2023-05-19T05:32:26;18.70;45.60
11989;DHT22;6054;50.966;7.094;2023-05-19T05:34:53;18.70;45.50
11989;DHT22;6054;50.966;7.094;2023-05-19T05:37:19;18.80;44.70
11989;DHT22;6054;50.966;7.094;2023-05-19T05:39:46;19.20;44.60
11989;DHT22;6054;50.966;7.094;2023-05-19T05:42:13;19.20;45.60
11989;DHT22;6054;50.966;7.094;2023-05-19T05:44:41;19.10;44.70
11989;DHT22;6054;50.966;7.094;2023-05-19T05:47:09;19.20;44.80
11989;DHT22;6054;50.966;7.094;2023-05-19T05:49:37;19.30;45.70
11989;DHT22;6054;50.966;7.094;2023-05-19T05:52:05;19.40;45.70
11989;DHT22;6054;50.966;7.094;2023-05-19T05:54:37;19.50;45.70
11989;DHT22;6054;50.966;7.094;2023-05-19T05:57:05;19.60;45.40
11989;DHT22;6054;50.966;7.094;2023-05-19T05:59:32;19.70;45.20
11989;DHT22;6054;50.966;7.094;2023-05-19T06:02:00;19.70;44.90
11989;DHT22;6054;50.966;7.094;2023-05-19T06:04:27;19.80;44.00
11989;DHT22;6054;50.966;7.094;2023-05-19T06:06:54;19.90;43.90
11989;DHT22;6054;50.966;7.094;2023-05-19T06:09:25;19.90;43.50
11989;DHT22;6054;50.966;7.094;2023-05-19T06:11:52;20.00;42.60
11989;DHT22;6054;50.966;7.094;2023-05-19T06:14:19;20.10;41.90
11989;DHT22;6054;50.966;7.094;2023-05-19T06:16:45;20.10;41.40
11989;DHT22;6054;50.966;7.094;2023-05-19T06:19:13;20.20;40.90
11989;DHT22;6054;50.966;7.094;2023-05-19T06:21:40;20.50;40.80
11989;DHT22;6054;50.966;7.094;2023-05-19T06:24:07;20.60;40.90
11989;DHT22;6054;50.966;7.094;2023-05-19T06:26:34;20.30;40.30
11989;DHT22;6054;50.966;7.094;2023-05-19T06:29:01;20.40;40.50
11989;DHT22;6054;50.966;7.094;2023-05-19T06:31:28;20.40;40.00
11989;DHT22;6054;50.966;7.094;2023-05-19T06:33:55;20.50;40.50
11989;DHT22;6054;50.966;7.094;2023-05-19T06:36:23;20.60;40.60
11989;DHT22;6054;50.966;7.094;2023-05-19T06:38:50;20.70;39.90
11989;DHT22;6054;50.966;7.094;2023-05-19T06:41:17;20.70;39.90
11989;DHT22;6054;50.966;7.094;2023-05-19T06:43:44;20.90;39.50
11989;DHT22;6054;50.966;7.094;2023-05-19T06:46:10;21.10;39.30
11989;DHT22;6054;50.966;7.094;2023-05-19T06:48:37;21.20;39.70
11989;DHT22;6054;50.966;7.094;2023-05-19T06:51:04;21.10;39.90
11989;DHT22;6054;50.966;7.094;2023-05-19T06:53:32;21.30;40.00
11989;DHT22;6054;50.966;7.094;2023-05-19T06:55:59;21.20;39.20
11989;DHT22;6054;50.966;7.094;2023-05-19T06:58:26;21.30;39.20
11989;DHT22;6054;50.966;7.094;2023-05-19T07:00:53;21.40;40.00
11989;DHT22;6054;50.966;7.094;2023-05-19T07:03:19;21.70;39.90
11989;DHT22;6054;50.966;7.094;2023-05-19T07:05:46;21.80;39.50
11989;DHT22;6054;50.966;7.094;2023-05-19T07:08:13;21.70;38.40
11989;DHT22;6054;50.966;7.094;2023-05-19T07:10:41;21.80;37.70
11989;DHT22;6054;50.966;7.094;2023-05-19T07:13:08;21.80;36.60
11989;DHT22;6054;50.966;7.094;2023-05-19T07:15:35;21.90;37.10
11989;DHT22;6054;50.966;7.094;2023-05-19T07:18:01;21.90;37.00
11989;DHT22;6054;50.966;7.094;2023-05-19T07:20:28;22.00;36.00
11989;DHT22;6054;50.966;7.094;2023-05-19T07:22:55;22.10;36.80
11989;DHT22;6054;50.966;7.094;2023-05-19T07:25:22;22.40;36.70
11989;DHT22;6054;50.966;7.094;2023-05-19T07:27:51;22.30;36.40
11989;DHT22;6054;50.966;7.094;2023-05-19T07:30:18;22.30;36.40
11989;DHT22;6054;50.966;7.094;2023-05-19T07:32:45;22.40;36.40
11989;DHT22;6054;50.966;7.094;2023-05-19T07:35:13;22.50;36.10
11989;DHT22;6054;50.966;7.094;2023-05-19T07:37:39;22.60;35.60
11989;DHT22;6054;50.966;7.094;2023-05-19T07:40:07;22.70;35.70
11989;DHT22;6054;50.966;7.094;2023-05-19T07:42:34;22.80;36.40
11989;DHT22;6054;50.966;7.094;2023-05-19T07:45:03;23.10;36.30
11989;DHT22;6054;50.966;7.094;2023-05-19T07:47:30;23.00;36.80
11989;DHT22;6054;50.966;7.094;2023-05-19T07:49:57;23.10;35.90
11989;DHT22;6054;50.966;7.094;2023-05-19T07:52:24;23.20;35.60
11989;DHT22;6054;50.966;7.094;2023-05-19T07:54:51;23.30;35.60
11989;DHT22;6054;50.966;7.094;2023-05-19T07:57:18;23.40;35.50
11989;DHT22;6054;50.966;7.094;2023-05-19T07:59:45;23.50;35.30
11989;DHT22;6054;50.966;7.094;2023-05-19T08:02:13;23.70;35.10
11989;DHT22;6054;50.966;7.094;2023-05-19T08:04:40;23.70;35.10
11989;DHT22;6054;50.966;7.094;2023-05-19T08:07:07;23.80;34.60
11989;DHT22;6054;50.966;7.094;2023-05-19T08:09:33;23.90;34.60
11989;DHT22;6054;50.966;7.094;2023-05-19T08:12:00;24.10;34.70
11989;DHT22;6054;50.966;7.094;2023-05-19T08:14:29;24.10;34.60
11989;DHT22;6054;50.966;7.094;2023-05-19T08:16:57;24.50;34.20
11989;DHT22;6054;50.966;7.094;2023-05-19T08:19:25;24.30;34.20
11989;DHT22;6054;50.966;7.094;2023-05-19T08:21:52;24.40;33.40
11989;DHT22;6054;50.966;7.094;2023-05-19T08:24:20;24.70;33.40
11989;DHT22;6054;50.966;7.094;2023-05-19T08:26:46;24.50;33.60
11989;DHT22;6054;50.966;7.094;2023-05-19T08:29:13;24.60;33.30
11989;DHT22;6054;50.966;7.094;2023-05-19T08:31:40;24.90;32.90
11989;DHT22;6054;50.966;7.094;2023-05-19T08:34:07;24.80;32.80
11989;DHT22;6054;50.966;7.094;2023-05-19T08:36:35;24.90;32.50
11989;DHT22;6054;50.966;7.094;2023-05-19T08:39:02;24.90;32.70
11989;DHT22;6054;50.966;7.094;2023-05-19T08:41:29;25.00;32.70
11989;DHT22;6054;50.966;7.094;2023-05-19T08:43:55;25.10;32.30
11989;DHT22;6054;50.966;7.094;2023-05-19T08:46:24;25.10;31.70
11989;DHT22;6054;50.966;7.094;2023-05-19T08:48:53;25.20;32.00
11989;DHT22;6054;50.966;7.094;2023-05-19T08:51:38;25.20;31.60
11989;DHT22;6054;50.966;7.094;2023-05-19T08:54:12;25.30;31.80
11989;DHT22;6054;50.966;7.094;2023-05-19T08:56:42;25.40;31.80
11989;DHT22;6054;50.966;7.094;2023-05-19T08:59:10;25.50;31.30
11989;DHT22;6054;50.966;7.094;2023-05-19T09:01:38;25.60;31.50
11989;DHT22;6054;50.966;7.094;2023-05-19T09:04:05;25.60;31.10
11989;DHT22;6054;50.966;7.094;2023-05-19T09:06:32;25.80;31.30
11989;DHT22;6054;50.966;7.094;2023-05-19T09:09:00;25.80;31.30
11989;DHT22;6054;50.966;7.094;2023-05-19T09:11:29;25.90;31.20
11989;DHT22;6054;50.966;7.094;2023-05-19T09:13:56;26.20;30.50
11989;DHT22;6054;50.966;7.094;2023-05-19T09:16:23;26.30;30.60
11989;DHT22;6054;50.966;7.094;2023-05-19T09:18:53;26.10;30.50
11989;DHT22;6054;50.966;7.094;2023-05-19T09:21:26;26.20;30.80
11989;DHT22;6054;50.966;7.094;2023-05-19T09:23:55;26.30;31.40
11989;DHT22;6054;50.966;7.094;2023-05-19T09:26:23;26.40;31.30
11989;DHT22;6054;50.966;7.094;2023-05-19T09:28:50;26.70;30.60
11989;DHT22;6054;50.966;7.094;2023-05-19T09:31:17;26.70;30.80
11989;DHT22;6054;50.966;7.094;2023-05-19T09:33:44;26.90;31.40
11989;DHT22;6054;50.966;7.094;2023-05-19T09:36:11;26.90;31.10
11989;DHT22;6054;50.966;7.094;2023-05-19T09:38:38;27.10;30.90
11989;DHT22;6054;50.966;7.094;2023-05-19T09:41:07;27.20;31.00
11989;DHT22;6054;50.966;7.094;2023-05-19T09:43:35;27.40;31.10
11989;DHT22;6054;50.966;7.094;2023-05-19T09:46:03;27.40;29.90
11989;DHT22;6054;50.966;7.094;2023-05-19T09:48:30;27.50;29.90
11989;DHT22;6054;50.966;7.094;2023-05-19T09:50:59;27.60;29.70
11989;DHT22;6054;50.966;7.094;2023-05-19T09:53:28;27.70;29.60
11989;DHT22;6054;50.966;7.094;2023-05-19T09:55:56;27.80;28.70
11989;DHT22;6054;50.966;7.094;2023-05-19T09:58:23;27.80;28.80
11989;DHT22;6054;50.966;7.094;2023-05-19T10:00:52;28.10;28.60
11989;DHT22;6054;50.966;7.094;2023-05-19T10:03:20;28.00;28.30
11989;DHT22;6054;50.966;7.094;2023-05-19T10:05:48;28.10;28.50
11989;DHT22;6054;50.966;7.094;2023-05-19T10:08:16;28.20;28.10
11989;DHT22;6054;50.966;7.094;2023-05-19T10:10:44;28.40;28.40
11989;DHT22;6054;50.966;7.094;2023-05-19T10:13:11;28.20;28.10
11989;DHT22;6054;50.966;7.094;2023-05-19T10:15:39;28.20;27.90
11989;DHT22;6054;50.966;7.094;2023-05-19T10:18:08;28.30;28.40
11989;DHT22;6054;50.966;7.094;2023-05-19T10:20:35;28.30;27.80
11989;DHT22;6054;50.966;7.094;2023-05-19T10:23:02;28.10;27.50
11989;DHT22;6054;50.966;7.094;2023-05-19T10:25:30;28.10;27.60
11989;DHT22;6054;50.966;7.094;2023-05-19T10:28:00;28.10;27.40
11989;DHT22;6054;50.966;7.094;2023-05-19T10:30:37;28.20;27.90
11989;DHT22;6054;50.966;7.094;2023-05-19T10:33:09;28.30;28.30
11989;DHT22;6054;50.966;7.094;2023-05-19T10:36:01;28.20;28.40
11989;DHT22;6054;50.966;7.094;2023-05-19T10:38:39;28.20;28.20
11989;DHT22;6054;50.966;7.094;2023-05-19T10:41:11;28.20;28.40
11989;DHT22;6054;50.966;7.094;2023-05-19T10:43:50;28.20;28.40
11989;DHT22;6054;50.966;7.094;2023-05-19T10:46:22;28.20;27.90
11989;DHT22;6054;50.966;7.094;2023-05-19T10:48:51;28.20;27.50
11989;DHT22;6054;50.966;7.094;2023-05-19T10:51:17;28.20;27.50
11989;DHT22;6054;50.966;7.094;2023-05-19T10:53:44;28.20;27.60
11989;DHT22;6054;50.966;7.094;2023-05-19T10:56:26;28.40;27.70
11989;DHT22;6054;50.966;7.094;2023-05-19T10:58:54;28.30;27.60
11989;DHT22;6054;50.966;7.094;2023-05-19T11:01:21;28.20;27.40
11989;DHT22;6054;50.966;7.094;2023-05-19T11:03:51;28.50;28.10
11989;DHT22;6054;50.966;7.094;2023-05-19T11:06:19;28.30;28.00
11989;DHT22;6054;50.966;7.094;2023-05-19T11:08:51;28.30;28.00
11989;DHT22;6054;50.966;7.094;2023-05-19T11:11:19;28.30;28.20
11989;DHT22;6054;50.966;7.094;2023-05-19T11:13:50;28.50;27.80
11989;DHT22;6054;50.966;7.094;2023-05-19T11:16:18;28.50;27.50
11989;DHT22;6054;50.966;7.094;2023-05-19T11:18:50;28.60;27.50
11989;DHT22;6054;50.966;7.094;2023-05-19T11:21:19;28.60;27.30
11989;DHT22;6054;50.966;7.094;2023-05-19T11:23:46;28.90;27.20
11989;DHT22;6054;50.966;7.094;2023-05-19T11:26:13;28.80;26.80
11989;DHT22;6054;50.966;7.094;2023-05-19T11:28:40;28.90;27.40
11989;DHT22;6054;50.966;7.094;2023-05-19T11:31:08;29.00;27.10
11989;DHT22;6054;50.966;7.094;2023-05-19T11:33:36;28.90;27.20
11989;DHT22;6054;50.966;7.094;2023-05-19T11:36:07;29.00;27.00
11989;DHT22;6054;50.966;7.094;2023-05-19T11:38:34;28.90;26.50
11989;DHT22;6054;50.966;7.094;2023-05-19T11:41:02;28.90;26.30
11989;DHT22;6054;50.966;7.094;2023-05-19T11:43:30;29.00;26.70
11989;DHT22;6054;50.966;7.094;2023-05-19T11:45:56;29.10;26.30
11989;DHT22;6054;50.966;7.094;2023-05-19T11:48:23;29.10;26.30
11989;DHT22;6054;50.966;7.094;2023-05-19T11:50:51;29.10;26.70
11989;DHT22;6054;50.966;7.094;2023-05-19T11:53:20;29.10;26.60
11989;DHT22;6054;50.966;7.094;2023-05-19T11:55:47;29.10;26.80
11989;DHT22;6054;50.966;7.094;2023-05-19T11:58:14;29.10;26.70
11989;DHT22;6054;50.966;7.094;2023-05-19T12:00:43;29.20;26.30
11989;DHT22;6054;50.966;7.094;2023-05-19T12:03:11;29.10;26.40
11989;DHT22;6054;50.966;7.094;2023-05-19T12:05:41;29.20;26.70
11989;DHT22;6054;50.966;7.094;2023-05-19T12:08:08;29.20;27.20
11989;DHT22;6054;50.966;7.094;2023-05-19T12:10:37;29.20;26.30
11989;DHT22;6054;50.966;7.094;2023-05-19T12:13:05;29.30;26.50
11989;DHT22;6054;50.966;7.094;2023-05-19T12:15:33;29.30;26.40
11989;DHT22;6054;50.966;7.094;2023-05-19T12:18:01;29.30;26.30
11989;DHT22;6054;50.966;7.094;2023-05-19T12:20:29;29.30;26.10
11989;DHT22;6054;50.966;7.094;2023-05-19T12:22:57;29.30;26.50
11989;DHT22;6054;50.966;7.094;2023-05-19T12:25:25;29.50;26.60
11989;DHT22;6054;50.966;7.094;2023-05-19T12:27:58;29.40;26.20
11989;DHT22;6054;50.966;7.094;2023-05-19T12:30:28;29.40;26.30
11989;DHT22;6054;50.966;7.094;2023-05-19T12:32:55;29.40;26.10
11989;DHT22;6054;50.966;7.094;2023-05-19T12:35:25;29.60;25.90
11989;DHT22;6054;50.966;7.094;2023-05-19T12:37:53;29.50;25.70
11989;DHT22;6054;50.966;7.094;2023-05-19T12:40:20;29.60;25.40
11989;DHT22;6054;50.966;7.094;2023-05-19T12:42:48;29.60;25.80
11989;DHT22;6054;50.966;7.094;2023-05-19T12:45:19;29.60;25.50
11989;DHT22;6054;50.966;7.094;2023-05-19T12:47:48;29.60;25.40
11989;DHT22;6054;50.966;7.094;2023-05-19T12:50:15;29.50;25.60
11989;DHT22;6054;50.966;7.094;2023-05-19T12:52:43;29.60;26.00
11989;DHT22;6054;50.966;7.094;2023-05-19T12:55:11;29.70;27.00
11989;DHT22;6054;50.966;7.094;2023-05-19T12:57:39;29.60;26.60
11989;DHT22;6054;50.966;7.094;2023-05-19T13:00:12;29.60;26.40
11989;DHT22;6054;50.966;7.094;2023-05-19T13:02:56;29.60;26.00
11989;DHT22;6054;50.966;7.094;2023-05-19T13:05:23;29.60;26.30
11989;DHT22;6054;50.966;7.094;2023-05-19T13:07:56;29.60;25.90
11989;DHT22;6054;50.966;7.094;2023-05-19T13:10:26;29.60;26.40
11989;DHT22;6054;50.966;7.094;2023-05-19T13:12:53;29.70;25.80
11989;DHT22;6054;50.966;7.094;2023-05-19T13:15:22;29.80;26.50
11989;DHT22;6054;50.966;7.094;2023-05-19T13:17:49;29.80;25.90
11989;DHT22;6054;50.966;7.094;2023-05-19T13:20:18;29.80;26.20
11989;DHT22;6054;50.966;7.094;2023-05-19T13:22:46;30.00;26.50
11989;DHT22;6054;50.966;7.094;2023-05-19T13:25:13;30.00;26.00
11989;DHT22;6054;50.966;7.094;2023-05-19T13:27:40;30.20;26.20
11989;DHT22;6054;50.966;7.094;2023-05-19T13:30:08;30.30;25.70
11989;DHT22;6054;50.966;7.094;2023-05-19T13:32:35;30.10;25.80
11989;DHT22;6054;50.966;7.094;2023-05-19T13:35:02;30.10;25.30
11989;DHT22;6054;50.966;7.094;2023-05-19T13:37:30;30.10;25.60
11989;DHT22;6054;50.966;7.094;2023-05-19T13:39:57;30.10;25.10
11989;DHT22;6054;50.966;7.094;2023-05-19T13:42:23;30.30;25.30
11989;DHT22;6054;50.966;7.094;2023-05-19T13:44:53;30.30;25.10
11989;DHT22;6054;50.966;7.094;2023-05-19T13:47:21;30.10;24.80
11989;DHT22;6054;50.966;7.094;2023-05-19T13:49:48;30.20;25.10
11989;DHT22;6054;50.966;7.094;2023-05-19T13:52:15;30.10;25.00
11989;DHT22;6054;50.966;7.094;2023-05-19T13:54:43;30.00;24.60
11989;DHT22;6054;50.966;7.094;2023-05-19T13:57:10;30.20;24.10
11989;DHT22;6054;50.966;7.094;2023-05-19T13:59:37;30.20;24.70
11989;DHT22;6054;50.966;7.094;2023-05-19T14:02:04;30.20;24.90
11989;DHT22;6054;50.966;7.094;2023-05-19T14:04:31;30.10;25.60
11989;DHT22;6054;50.966;7.094;2023-05-19T14:06:58;30.20;25.10
11989;DHT22;6054;50.966;7.094;2023-05-19T14:09:25;30.10;24.90
11989;DHT22;6054;50.966;7.094;2023-05-19T14:11:53;30.30;25.10
11989;DHT22;6054;50.966;7.094;2023-05-19T14:14:20;30.20;24.80
11989;DHT22;6054;50.966;7.094;2023-05-19T14:16:47;30.10;24.80
11989;DHT22;6054;50.966;7.094;2023-05-19T14:19:14;30.10;25.00
11989;DHT22;6054;50.966;7.094;2023-05-19T14:21:41;30.10;25.10
11989;DHT22;6054;50.966;7.094;2023-05-19T14:24:10;30.20;25.00
11989;DHT22;6054;50.966;7.094;2023-05-19T14:26:37;30.10;24.40
11989;DHT22;6054;50.966;7.094;2023-05-19T14:29:05;30.10;23.80
11989;DHT22;6054;50.966;7.094;2023-05-19T14:31:33;30.10;24.30
11989;DHT22;6054;50.966;7.094;2023-05-19T14:36:27;30.10;25.50
11989;DHT22;6054;50.966;7.094;2023-05-19T14:38:54;30.10;25.50
11989;DHT22;6054;50.966;7.094;2023-05-19T14:41:21;30.10;25.60
11989;DHT22;6054;50.966;7.094;2023-05-19T14:43:48;29.90;25.30
11989;DHT22;6054;50.966;7.094;2023-05-19T14:46:18;30.00;25.40
11989;DHT22;6054;50.966;7.094;2023-05-19T14:48:45;30.00;25.40
11989;DHT22;6054;50.966;7.094;2023-05-19T14:51:12;30.30;25.30
11989;DHT22;6054;50.966;7.094;2023-05-19T14:53:39;30.10;25.30
11989;DHT22;6054;50.966;7.094;2023-05-19T14:56:06;30.00;25.20
11989;DHT22;6054;50.966;7.094;2023-05-19T14:58:33;30.00;25.20
11989;DHT22;6054;50.966;7.094;2023-05-19T15:01:00;30.00;25.60
11989;DHT22;6054;50.966;7.094;2023-05-19T15:03:28;30.00;25.70
11989;DHT22;6054;50.966;7.094;2023-05-19T15:05:55;30.00;25.40
11989;DHT22;6054;50.966;7.094;2023-05-19T15:08:21;30.20;25.60
11989;DHT22;6054;50.966;7.094;2023-05-19T15:10:48;30.10;25.60
11989;DHT22;6054;50.966;7.094;2023-05-19T15:13:15;30.20;25.30
11989;DHT22;6054;50.966;7.094;2023-05-19T15:15:43;30.10;25.40
11989;DHT22;6054;50.966;7.094;2023-05-19T15:18:10;30.10;25.20
11989;DHT22;6054;50.966;7.094;2023-05-19T15:20:38;30.40;24.90
11989;DHT22;6054;50.966;7.094;2023-05-19T15:23:05;30.30;25.20
11989;DHT22;6054;50.966;7.094;2023-05-19T15:25:32;30.10;24.20
11989;DHT22;6054;50.966;7.094;2023-05-19T15:27:59;30.20;24.80
11989;DHT22;6054;50.966;7.094;2023-05-19T15:30:26;30.10;24.80
11989;DHT22;6054;50.966;7.094;2023-05-19T15:32:52;30.20;25.10
11989;DHT22;6054;50.966;7.094;2023-05-19T15:35:19;30.40;25.30
11989;DHT22;6054;50.966;7.094;2023-05-19T15:37:48;30.60;26.00
11989;DHT22;6054;50.966;7.094;2023-05-19T15:40:15;31.20;25.00
11989;DHT22;6054;50.966;7.094;2023-05-19T15:42:41;31.30;25.20
11989;DHT22;6054;50.966;7.094;2023-05-19T15:45:08;31.50;24.40
11989;DHT22;6054;50.966;7.094;2023-05-19T15:47:35;31.70;24.10
11989;DHT22;6054;50.966;7.094;2023-05-19T15:50:02;31.80;23.50
11989;DHT22;6054;50.966;7.094;2023-05-19T15:52:29;31.60;23.70
11989;DHT22;6054;50.966;7.094;2023-05-19T15:54:57;31.60;23.80